Time;durP1;ratioP1;P1;durP2;ratioP2;P2;SDS_P1;SDS_P2;PMS_P1;PMS_P2;Temp;Humidity;BMP_temperature;BMP_pressure;BME280_temperature;BME280_humidity;BME280_pressure;Samples;Min_cycle;Max_cycle;Signal;HPM_P1;HPM_P2
2023/01/29 00:01:51;;;;;;;51.00;29.30;;;-4.20;99.90;;;;;;5071635;28;20469;-68
2023/01/29 00:04:18;;;;;;;45.30;31.77;;;-4.10;99.90;;;;;;5067169;28;20850;-68
2023/01/29 00:06:45;;;;;;;46.93;30.50;;;-4.10;99.90;;;;;;5074183;28;20545;-69
2023/01/29 00:09:13;;;;;;;39.77;28.97;;;-4.10;99.90;;;;;;5066954;28;20462;-68
2023/01/29 00:11:42;;;;;;;47.37;29.87;;;-4.00;99.90;;;;;;5066653;28;20487;-68
2023/01/29 00:14:10;;;;;;;52.00;30.90;;;-4.00;99.90;;;;;;5069690;28;20550;-71
2023/01/29 00:16:38;;;;;;;53.83;32.97;;;-4.00;99.90;;;;;;5065603;28;20491;-71
2023/01/29 00:19:06;;;;;;;54.63;31.00;;;-4.00;99.90;;;;;;5068611;28;20495;-68
2023/01/29 00:21:32;;;;;;;55.73;30.60;;;-3.90;99.90;;;;;;5066466;28;20489;-68
2023/01/29 00:23:59;;;;;;;50.67;30.10;;;-3.80;99.90;;;;;;5074800;28;20463;-68
2023/01/29 00:26:27;;;;;;;47.23;31.10;;;-3.80;99.90;;;;;;5068374;28;20463;-68
2023/01/29 00:28:55;;;;;;;58.40;32.13;;;-3.80;99.90;;;;;;5071361;28;20466;-68
2023/01/29 00:31:25;;;;;;;48.80;30.97;;;-3.90;99.90;;;;;;5065146;28;20471;-68
2023/01/29 00:33:53;;;;;;;51.13;32.13;;;-3.90;99.90;;;;;;5059182;28;20473;-68
2023/01/29 00:36:21;;;;;;;58.93;30.60;;;-3.90;99.90;;;;;;5074175;28;20833;-68
2023/01/29 00:38:57;;;;;;;54.27;32.20;;;-4.00;99.90;;;;;;5067522;28;20490;-71
2023/01/29 00:46:56;;;;;;;45.30;26.87;;;-4.20;99.90;;;;;;5062469;28;20461;-71
2023/01/29 00:49:25;;;;;;;53.87;28.60;;;-4.30;99.90;;;;;;5070680;28;20472;-71
2023/01/29 00:54:33;;;;;;;42.80;27.30;;;-4.40;99.90;;;;;;5075970;28;20486;-69
2023/01/29 00:56:59;;;;;;;43.33;27.40;;;-4.30;99.90;;;;;;5070883;28;20462;-68
2023/01/29 00:59:26;;;;;;;49.30;30.17;;;-4.20;99.90;;;;;;5070126;28;20463;-71
2023/01/29 01:04:39;;;;;;;45.57;28.20;;;-4.10;99.90;;;;;;5068745;28;20461;-71
2023/01/29 01:07:07;;;;;;;48.10;29.20;;;-4.10;99.90;;;;;;5075115;28;21075;-70
2023/01/29 01:12:20;;;;;;;48.50;27.57;;;-4.00;99.90;;;;;;5073127;28;20957;-71
2023/01/29 01:14:47;;;;;;;48.07;28.13;;;-4.20;99.90;;;;;;5075456;28;20467;-70
2023/01/29 01:17:15;;;;;;;46.90;30.13;;;-4.30;99.90;;;;;;5067570;28;20486;-69
2023/01/29 01:19:45;;;;;;;43.90;26.10;;;-4.40;99.90;;;;;;5066748;28;20561;-70
2023/01/29 01:22:11;;;;;;;45.00;27.63;;;-4.50;99.90;;;;;;5080555;28;21093;-69
2023/01/29 01:24:40;;;;;;;42.90;28.07;;;-4.50;99.90;;;;;;5072342;28;20470;-68
2023/01/29 01:27:07;;;;;;;45.60;29.53;;;-4.50;99.90;;;;;;5074379;28;20822;-69
2023/01/29 01:29:34;;;;;;;48.37;27.37;;;-4.30;99.90;;;;;;5063629;28;20483;-69
2023/01/29 01:32:01;;;;;;;50.10;29.40;;;-4.10;99.90;;;;;;5077081;28;20484;-69
2023/01/29 01:34:28;;;;;;;53.70;31.93;;;-4.10;99.90;;;;;;5068384;28;20466;-69
2023/01/29 01:36:56;;;;;;;44.37;28.90;;;-4.10;99.90;;;;;;5075226;28;20469;-69
2023/01/29 01:39:23;;;;;;;47.03;30.70;;;-4.10;99.90;;;;;;5066576;28;20489;-68
2023/01/29 01:41:52;;;;;;;54.13;29.07;;;-4.00;99.90;;;;;;5072107;28;20472;-69
2023/01/29 01:44:54;;;;;;;62.20;31.97;;;-4.00;99.90;;;;;;5070873;28;20462;-70
2023/01/29 01:47:26;;;;;;;57.13;31.90;;;-3.90;99.90;;;;;;5068188;28;20481;-69
2023/01/29 01:49:55;;;;;;;59.30;28.63;;;-3.80;99.90;;;;;;5073943;28;20466;-69
2023/01/29 01:52:23;;;;;;;59.30;31.53;;;-3.70;99.90;;;;;;5073877;28;20497;-70
2023/01/29 01:54:52;;;;;;;57.60;29.20;;;-3.80;99.90;;;;;;5076937;28;21027;-69
2023/01/29 01:57:24;;;;;;;53.37;30.60;;;-3.80;99.90;;;;;;5073083;28;20466;-69
2023/01/29 01:59:56;;;;;;;48.77;29.97;;;-3.80;99.90;;;;;;5074902;28;20925;-69
2023/01/29 02:10:44;;;;;;;58.87;33.83;;;-4.00;99.90;;;;;;5070240;28;20540;-69
2023/01/29 02:13:15;;;;;;;50.17;29.60;;;-3.90;99.90;;;;;;5069947;28;20489;-69
2023/01/29 02:15:45;;;;;;;54.30;29.67;;;-4.00;99.90;;;;;;5075951;28;20693;-69
2023/01/29 02:18:14;;;;;;;55.33;31.83;;;-4.00;99.90;;;;;;5079886;28;20486;-69
2023/01/29 02:20:48;;;;;;;62.63;33.73;;;-4.10;99.90;;;;;;5072825;28;20548;-69
2023/01/29 02:23:40;;;;;;;58.47;32.67;;;-4.00;99.90;;;;;;5069018;28;20472;-69
2023/01/29 02:26:28;;;;;;;49.33;30.00;;;-4.00;99.90;;;;;;5072166;28;20945;-69
2023/01/29 02:29:21;;;;;;;55.83;31.40;;;-4.00;99.90;;;;;;5068743;28;20462;-69
2023/01/29 02:31:59;;;;;;;62.07;32.70;;;-4.00;99.90;;;;;;5069090;28;21183;-69
2023/01/29 02:37:33;;;;;;;49.67;30.10;;;-4.00;99.90;;;;;;5072577;28;20522;-69
2023/01/29 02:40:12;;;;;;;58.40;30.10;;;-4.10;99.90;;;;;;5069168;28;20491;-69
2023/01/29 02:42:44;;;;;;;63.53;33.20;;;-4.20;99.90;;;;;;5071003;28;20749;-69
2023/01/29 02:45:18;;;;;;;54.60;31.23;;;-4.10;99.90;;;;;;5067930;28;20463;-69
2023/01/29 02:47:48;;;;;;;53.80;31.53;;;-4.10;99.90;;;;;;5072717;28;20485;-69
2023/01/29 02:50:19;;;;;;;60.57;33.73;;;-4.00;99.90;;;;;;5074524;28;20953;-69
2023/01/29 02:52:57;;;;;;;50.00;30.20;;;-4.10;99.90;;;;;;5066988;28;20588;-70
2023/01/29 02:55:29;;;;;;;62.93;33.27;;;-3.90;99.90;;;;;;5068525;28;20528;-69
2023/01/29 02:57:59;;;;;;;54.47;32.40;;;-3.70;99.90;;;;;;5068621;28;20459;-69
2023/01/29 03:00:30;;;;;;;59.43;31.10;;;-3.60;99.90;;;;;;5071889;28;20469;-69
2023/01/29 03:03:02;;;;;;;61.07;35.43;;;-3.40;99.90;;;;;;5060884;28;20822;-69
2023/01/29 03:05:33;;;;;;;66.63;32.60;;;-3.30;99.90;;;;;;5069960;28;20854;-69
2023/01/29 03:08:05;;;;;;;61.37;33.30;;;-3.20;99.90;;;;;;5065701;28;20961;-69
2023/01/29 03:10:37;;;;;;;65.77;33.33;;;-3.20;99.90;;;;;;5071281;28;20463;-69
2023/01/29 03:13:09;;;;;;;68.87;33.83;;;-3.10;99.90;;;;;;5072086;28;20485;-69
2023/01/29 03:15:45;;;;;;;59.30;29.97;;;-3.10;99.90;;;;;;5069897;28;20549;-69
2023/01/29 03:18:15;;;;;;;66.90;34.87;;;-3.10;99.90;;;;;;5068457;28;20753;-69
2023/01/29 03:20:47;;;;;;;73.13;33.50;;;-3.20;99.90;;;;;;5076740;28;20478;-70
2023/01/29 03:23:22;;;;;;;62.10;33.43;;;-3.10;99.90;;;;;;5069660;28;20478;-69
2023/01/29 03:34:23;;;;;;;57.17;30.70;;;-3.40;99.90;;;;;;5068070;28;20966;-68
2023/01/29 03:36:54;;;;;;;60.37;31.60;;;-3.50;99.90;;;;;;5067465;28;20467;-69
2023/01/29 03:39:22;;;;;;;58.27;33.40;;;-3.50;99.90;;;;;;5069398;28;20521;-69
2023/01/29 03:41:55;;;;;;;60.73;32.53;;;-3.60;99.90;;;;;;5070851;28;20468;-69
2023/01/29 03:44:30;;;;;;;57.87;31.70;;;-3.50;99.90;;;;;;5074895;28;20552;-69
2023/01/29 03:47:05;;;;;;;51.83;31.83;;;-3.50;99.90;;;;;;5076087;28;20529;-69
2023/01/29 03:49:41;;;;;;;66.07;33.70;;;-3.60;99.90;;;;;;5072678;28;20461;-69
2023/01/29 03:52:16;;;;;;;59.60;32.63;;;-3.60;99.90;;;;;;5067755;28;20463;-69
2023/01/29 03:54:53;;;;;;;60.90;31.17;;;-3.60;99.90;;;;;;5070230;28;20482;-68
2023/01/29 03:57:28;;;;;;;64.07;33.33;;;-3.60;99.90;;;;;;5059654;28;20520;-69
2023/01/29 04:00:03;;;;;;;70.47;33.50;;;-3.60;99.90;;;;;;5063557;28;20474;-69
2023/01/29 04:02:38;;;;;;;67.17;32.50;;;-3.60;99.90;;;;;;5069016;28;20466;-69
2023/01/29 04:05:11;;;;;;;68.73;33.40;;;-3.60;99.90;;;;;;5066445;28;20467;-69
2023/01/29 04:07:41;;;;;;;57.43;30.87;;;-3.60;99.90;;;;;;5070572;28;20511;-69
2023/01/29 04:10:12;;;;;;;56.47;31.67;;;-3.60;99.90;;;;;;5069027;28;20887;-69
2023/01/29 04:12:43;;;;;;;69.73;31.47;;;-3.60;99.90;;;;;;5064162;28;20493;-69
2023/01/29 04:15:14;;;;;;;64.23;30.10;;;-3.50;99.90;;;;;;5068319;28;20976;-69
2023/01/29 04:17:48;;;;;;;58.23;32.30;;;-3.50;99.90;;;;;;5058218;28;20801;-69
2023/01/29 04:20:15;;;;;;;58.80;29.13;;;-3.50;99.90;;;;;;5070531;28;20481;-69
2023/01/29 04:22:46;;;;;;;58.13;30.47;;;-3.60;99.90;;;;;;5073924;28;20470;-69
2023/01/29 04:25:15;;;;;;;57.93;31.47;;;-3.60;99.90;;;;;;5062247;28;20467;-69
2023/01/29 04:27:52;;;;;;;71.37;33.73;;;-3.50;99.90;;;;;;5067869;28;20466;-69
2023/01/29 04:30:34;;;;;;;66.60;33.80;;;-3.50;99.90;;;;;;5070010;28;21160;-69
2023/01/29 04:33:16;;;;;;;53.87;29.67;;;-3.50;99.90;;;;;;5071259;28;20482;-69
2023/01/29 04:35:54;;;;;;;68.07;31.77;;;-3.50;99.90;;;;;;5076152;28;20924;-68
2023/01/29 04:38:32;;;;;;;79.10;35.23;;;-3.40;99.90;;;;;;5070330;28;20466;-69
2023/01/29 04:41:05;;;;;;;73.13;31.47;;;-3.40;99.90;;;;;;5069086;28;20490;-69
2023/01/29 04:43:38;;;;;;;72.03;33.10;;;-3.30;99.90;;;;;;5068753;28;20467;-69
2023/01/29 04:46:13;;;;;;;60.87;30.40;;;-3.30;99.90;;;;;;5062508;28;20842;-69
2023/01/29 04:48:51;;;;;;;65.20;33.20;;;-3.30;99.90;;;;;;5072561;28;20474;-69
2023/01/29 04:51:25;;;;;;;58.60;31.23;;;-3.30;99.90;;;;;;5061382;28;20937;-69
2023/01/29 04:53:59;;;;;;;63.47;30.50;;;-3.40;99.90;;;;;;5070013;28;21025;-69
2023/01/29 04:56:34;;;;;;;65.87;32.90;;;-3.50;99.90;;;;;;5076186;28;20485;-68
2023/01/29 04:59:05;;;;;;;60.80;32.07;;;-3.50;99.90;;;;;;5066883;28;20492;-69
2023/01/29 05:01:35;;;;;;;63.17;33.03;;;-3.40;99.90;;;;;;5069292;28;20462;-69
2023/01/29 05:04:08;;;;;;;66.70;34.40;;;-3.40;99.90;;;;;;5060870;28;20463;-68
2023/01/29 05:06:37;;;;;;;73.07;33.07;;;-3.40;99.90;;;;;;5069270;28;20473;-69
2023/01/29 05:09:04;;;;;;;68.97;31.30;;;-3.40;99.90;;;;;;5071244;28;20493;-70
2023/01/29 05:11:34;;;;;;;67.67;32.83;;;-3.30;99.90;;;;;;5067280;28;21008;-69
2023/01/29 05:14:05;;;;;;;62.60;31.30;;;-3.40;99.90;;;;;;5065786;28;20533;-69
2023/01/29 05:16:40;;;;;;;55.93;31.77;;;-3.40;99.90;;;;;;5063274;28;20527;-69
2023/01/29 05:19:09;;;;;;;64.07;34.10;;;-3.30;99.90;;;;;;5065140;28;21236;-69
2023/01/29 05:21:37;;;;;;;70.17;33.50;;;-3.20;99.90;;;;;;5068799;28;20454;-69
2023/01/29 05:24:09;;;;;;;67.43;32.90;;;-3.20;99.90;;;;;;5070228;28;20745;-69
2023/01/29 05:29:21;;;;;;;64.83;31.87;;;-3.10;99.90;;;;;;5070267;28;20461;-69
2023/01/29 05:31:47;;;;;;;78.73;37.63;;;-3.00;99.90;;;;;;5070187;28;20458;-69
2023/01/29 05:34:16;;;;;;;71.20;32.93;;;-2.90;99.90;;;;;;5063994;28;20485;-69
2023/01/29 05:36:43;;;;;;;70.67;33.03;;;-2.80;99.90;;;;;;5069072;28;20464;-69
2023/01/29 05:39:10;;;;;;;75.33;34.67;;;-2.70;99.90;;;;;;5061413;28;20489;-69
2023/01/29 05:41:37;;;;;;;66.40;33.80;;;-2.70;99.90;;;;;;5075095;28;21762;-69
2023/01/29 05:44:04;;;;;;;69.30;32.67;;;-2.60;99.90;;;;;;5070713;28;21042;-69
2023/01/29 05:46:31;;;;;;;76.30;33.80;;;-2.60;99.90;;;;;;5071454;28;20465;-69
2023/01/29 05:48:58;;;;;;;64.23;31.90;;;-2.60;99.90;;;;;;5075473;28;20465;-69
2023/01/29 05:51:26;;;;;;;71.00;33.50;;;-2.50;99.90;;;;;;5072052;28;20996;-69
2023/01/29 05:53:54;;;;;;;69.10;33.37;;;-2.50;99.90;;;;;;5072351;28;20483;-69
2023/01/29 05:56:20;;;;;;;58.43;31.07;;;-2.60;99.90;;;;;;5071308;28;20477;-70
2023/01/29 05:58:47;;;;;;;69.70;35.20;;;-2.60;99.90;;;;;;5075979;28;20816;-69
2023/01/29 06:01:16;;;;;;;65.07;32.23;;;-2.70;99.90;;;;;;5071224;28;20493;-69
2023/01/29 06:03:43;;;;;;;67.57;32.23;;;-2.60;99.90;;;;;;5068722;28;20465;-69
2023/01/29 06:06:10;;;;;;;62.77;32.13;;;-2.60;99.90;;;;;;5072574;28;20510;-69
2023/01/29 06:08:39;;;;;;;60.47;31.03;;;-2.60;99.90;;;;;;5075108;28;20454;-69
2023/01/29 06:11:09;;;;;;;61.17;32.70;;;-2.60;99.90;;;;;;5072620;28;20465;-69
2023/01/29 06:13:36;;;;;;;64.63;31.50;;;-2.60;99.90;;;;;;5072474;28;20490;-69
2023/01/29 06:16:05;;;;;;;62.53;31.53;;;-2.60;99.90;;;;;;5072763;28;20529;-68
2023/01/29 06:18:33;;;;;;;68.13;32.67;;;-2.60;99.90;;;;;;5074507;28;20550;-69
2023/01/29 06:21:02;;;;;;;61.40;31.20;;;-2.60;99.90;;;;;;5066590;28;20461;-69
2023/01/29 06:23:29;;;;;;;61.70;33.37;;;-2.60;99.90;;;;;;5064116;28;20818;-69
2023/01/29 06:26:02;;;;;;;75.93;34.50;;;-2.60;99.90;;;;;;5074332;28;20470;-69
2023/01/29 06:28:29;;;;;;;64.53;33.00;;;-2.60;99.90;;;;;;5074589;28;20552;-69
2023/01/29 06:30:58;;;;;;;68.97;33.47;;;-2.70;99.90;;;;;;5069639;28;20476;-69
2023/01/29 06:33:25;;;;;;;66.37;34.70;;;-2.60;99.90;;;;;;5074511;28;20855;-69
2023/01/29 06:35:57;;;;;;;68.90;32.63;;;-2.60;99.90;;;;;;5068079;28;20851;-69
2023/01/29 06:38:24;;;;;;;71.07;34.43;;;-2.50;99.90;;;;;;5075363;28;21368;-69
2023/01/29 06:40:52;;;;;;;76.50;34.80;;;-2.40;99.90;;;;;;5069701;28;20563;-68
2023/01/29 06:43:20;;;;;;;63.33;33.37;;;-2.30;99.90;;;;;;5072248;28;20466;-68
2023/01/29 06:45:49;;;;;;;69.37;34.90;;;-2.20;99.90;;;;;;5061932;28;20463;-69
2023/01/29 06:48:16;;;;;;;64.80;31.43;;;-2.10;99.90;;;;;;5073452;28;20475;-69
2023/01/29 06:50:43;;;;;;;67.80;35.03;;;-1.90;99.90;;;;;;5073515;28;20502;-69
2023/01/29 06:53:10;;;;;;;65.20;34.07;;;-1.90;99.90;;;;;;5070240;28;20731;-69
2023/01/29 06:55:37;;;;;;;64.23;33.13;;;-1.90;99.90;;;;;;5077301;28;20853;-69
2023/01/29 06:58:08;;;;;;;70.03;33.23;;;-1.80;99.90;;;;;;5070119;28;20470;-69
2023/01/29 07:00:37;;;;;;;61.53;32.57;;;-1.80;99.90;;;;;;5072465;28;21015;-69
2023/01/29 07:03:05;;;;;;;61.13;31.00;;;-1.70;99.90;;;;;;5068678;28;20470;-69
2023/01/29 07:05:32;;;;;;;65.97;33.10;;;-1.60;99.90;;;;;;5064080;28;20473;-68
2023/01/29 07:07:59;;;;;;;77.47;33.90;;;-1.60;99.90;;;;;;5068331;28;20460;-69
2023/01/29 07:10:26;;;;;;;69.10;35.40;;;-1.60;99.90;;;;;;5067777;28;20470;-69
2023/01/29 07:12:53;;;;;;;67.80;33.93;;;-1.50;99.90;;;;;;5067711;28;20516;-69
2023/01/29 07:15:21;;;;;;;69.17;35.67;;;-1.50;99.90;;;;;;5071058;28;20486;-69
2023/01/29 07:18:00;;;;;;;69.13;33.60;;;-1.50;99.90;;;;;;5070885;28;20913;-70
2023/01/29 07:20:29;;;;;;;62.17;33.30;;;-1.50;99.90;;;;;;5076752;28;20537;-69
2023/01/29 07:22:57;;;;;;;66.10;35.17;;;-1.50;99.90;;;;;;5076583;28;20458;-70
2023/01/29 07:25:24;;;;;;;76.57;36.73;;;-1.40;99.90;;;;;;5064921;28;20457;-69
2023/01/29 07:27:52;;;;;;;61.50;33.13;;;-1.40;99.90;;;;;;5070740;28;20523;-69
2023/01/29 07:30:19;;;;;;;65.00;35.17;;;-1.30;99.90;;;;;;5069410;28;20817;-69
2023/01/29 07:32:47;;;;;;;71.47;36.60;;;-1.20;99.90;;;;;;5069569;28;20856;-69
2023/01/29 07:35:15;;;;;;;72.23;37.07;;;-1.20;99.90;;;;;;5069155;28;20567;-70
2023/01/29 07:37:42;;;;;;;70.73;36.43;;;-1.10;99.90;;;;;;5065668;28;20517;-69
2023/01/29 07:40:10;;;;;;;82.97;34.00;;;-1.10;99.90;;;;;;5066496;28;20510;-69
2023/01/29 07:42:38;;;;;;;62.27;34.13;;;-1.10;99.90;;;;;;5072113;28;20535;-69
2023/01/29 07:45:07;;;;;;;66.50;32.63;;;-1.20;99.90;;;;;;5058594;28;20467;-69
2023/01/29 07:47:34;;;;;;;66.83;34.37;;;-1.10;99.90;;;;;;5073403;28;20545;-70
2023/01/29 07:50:01;;;;;;;58.83;31.43;;;-1.00;99.90;;;;;;5068840;28;20470;-69
2023/01/29 07:52:31;;;;;;;71.10;34.47;;;-0.90;99.90;;;;;;5064190;28;20822;-70
2023/01/29 07:54:58;;;;;;;61.10;32.00;;;-0.90;99.90;;;;;;5069210;28;20495;-69
2023/01/29 07:57:25;;;;;;;76.23;34.20;;;-0.90;99.90;;;;;;5069773;28;20470;-70
2023/01/29 07:59:52;;;;;;;73.20;38.03;;;-0.90;99.90;;;;;;5068366;28;20837;-70
2023/01/29 08:02:19;;;;;;;75.50;37.53;;;-0.80;99.90;;;;;;5063474;28;20507;-70
2023/01/29 08:04:46;;;;;;;75.20;33.27;;;-0.80;99.90;;;;;;5065223;28;20466;-70
2023/01/29 08:07:12;;;;;;;73.70;37.57;;;-0.80;99.90;;;;;;5068144;28;20455;-70
2023/01/29 08:09:41;;;;;;;64.00;34.17;;;-0.80;99.90;;;;;;5071295;28;20889;-70
2023/01/29 08:12:08;;;;;;;61.27;33.63;;;-0.60;99.90;;;;;;5070732;28;20463;-70
2023/01/29 08:14:35;;;;;;;66.43;34.00;;;-0.50;99.90;;;;;;5067297;28;20814;-69
2023/01/29 08:17:01;;;;;;;68.13;34.70;;;-0.50;99.90;;;;;;5060467;28;20961;-69
2023/01/29 08:19:28;;;;;;;73.67;34.60;;;-0.50;99.90;;;;;;5071512;28;20743;-70
2023/01/29 08:21:55;;;;;;;65.87;33.87;;;-0.50;99.90;;;;;;5069008;28;20463;-69
2023/01/29 08:24:22;;;;;;;70.53;36.60;;;-0.40;99.90;;;;;;5070992;28;20462;-69
2023/01/29 08:26:50;;;;;;;60.93;35.50;;;-0.40;99.90;;;;;;5071123;28;20980;-69
2023/01/29 08:29:17;;;;;;;64.73;34.50;;;-0.30;99.90;;;;;;5066545;28;20490;-69
2023/01/29 08:31:44;;;;;;;68.63;35.50;;;-0.20;99.90;;;;;;5064684;28;20466;-69
2023/01/29 08:34:11;;;;;;;57.57;31.57;;;-0.20;99.90;;;;;;5063805;28;20490;-70
2023/01/29 08:36:38;;;;;;;70.23;37.57;;;-0.20;99.90;;;;;;5074591;28;20504;-69
2023/01/29 08:39:05;;;;;;;69.30;36.90;;;-0.10;99.90;;;;;;5073320;28;20462;-69
2023/01/29 08:41:32;;;;;;;65.03;35.57;;;0.00;99.90;;;;;;5072024;28;20474;-69
2023/01/29 08:44:03;;;;;;;70.87;36.83;;;0.10;99.90;;;;;;5069055;28;20598;-69
2023/01/29 08:46:30;;;;;;;69.37;37.13;;;0.00;99.90;;;;;;5063979;28;20550;-69
2023/01/29 08:48:57;;;;;;;68.53;35.60;;;0.20;99.90;;;;;;5069492;28;20454;-69
2023/01/29 08:51:25;;;;;;;70.90;36.17;;;0.20;99.90;;;;;;5068069;28;20853;-69
2023/01/29 08:53:51;;;;;;;70.33;36.07;;;0.30;99.90;;;;;;5074813;28;21031;-69
2023/01/29 08:56:18;;;;;;;72.50;37.40;;;0.20;99.90;;;;;;5070048;28;20473;-69
2023/01/29 08:58:45;;;;;;;69.43;35.33;;;0.20;99.90;;;;;;5061058;28;20468;-69
2023/01/29 09:01:14;;;;;;;64.70;33.37;;;0.20;99.90;;;;;;5060181;28;20463;-69
2023/01/29 09:03:43;;;;;;;66.00;34.10;;;0.20;99.90;;;;;;5065599;28;20845;-69
2023/01/29 09:06:11;;;;;;;66.00;33.90;;;0.20;99.90;;;;;;5074347;28;20462;-69
2023/01/29 09:08:38;;;;;;;68.97;35.07;;;0.30;99.90;;;;;;5069013;28;20455;-69
2023/01/29 09:11:05;;;;;;;60.30;35.03;;;0.30;99.90;;;;;;5068730;28;20562;-69
2023/01/29 09:13:33;;;;;;;62.10;36.70;;;0.30;99.90;;;;;;5065507;28;20493;-70
2023/01/29 09:16:00;;;;;;;64.07;36.23;;;0.30;99.90;;;;;;5067337;28;20480;-69
2023/01/29 09:18:29;;;;;;;65.50;37.30;;;0.40;99.90;;;;;;5078726;28;20506;-69
2023/01/29 09:20:57;;;;;;;70.03;40.40;;;0.50;99.90;;;;;;5063935;28;20946;-69
2023/01/29 09:23:24;;;;;;;67.47;38.10;;;0.60;99.90;;;;;;5060479;28;20891;-69
2023/01/29 09:25:51;;;;;;;68.73;37.47;;;0.60;99.90;;;;;;5059403;28;20568;-69
2023/01/29 09:28:18;;;;;;;65.50;37.10;;;0.60;99.90;;;;;;5060060;28;20467;-69
2023/01/29 09:30:45;;;;;;;70.33;38.77;;;0.70;99.90;;;;;;5060482;28;20477;-69
2023/01/29 09:33:12;;;;;;;67.33;38.23;;;0.70;99.90;;;;;;5064549;28;20458;-69
2023/01/29 09:35:42;;;;;;;67.40;39.70;;;0.70;99.90;;;;;;5066363;28;20797;-69
2023/01/29 09:38:08;;;;;;;66.50;39.93;;;0.60;99.90;;;;;;5072629;28;20465;-69
2023/01/29 09:40:43;;;;;;;74.30;39.17;;;0.80;99.90;;;;;;5067911;28;20490;-69
2023/01/29 09:43:15;;;;;;;67.13;38.83;;;0.90;99.90;;;;;;5063076;28;20466;-69
2023/01/29 09:45:53;;;;;;;69.00;40.20;;;0.80;99.90;;;;;;5070798;28;20462;-70
2023/01/29 09:48:22;;;;;;;60.10;40.53;;;0.90;99.90;;;;;;5072479;28;20966;-70
2023/01/29 09:50:54;;;;;;;58.60;38.00;;;1.00;99.90;;;;;;5068683;28;20506;-70
2023/01/29 09:53:27;;;;;;;67.03;37.60;;;1.00;99.90;;;;;;5075055;28;20462;-71
2023/01/29 09:55:58;;;;;;;66.57;37.40;;;0.90;99.90;;;;;;5071841;28;20585;-70
2023/01/29 09:58:30;;;;;;;72.50;38.37;;;1.00;99.90;;;;;;5071981;28;20494;-71
2023/01/29 10:01:05;;;;;;;70.37;39.20;;;1.10;99.90;;;;;;5071743;28;20491;-71
2023/01/29 10:03:54;;;;;;;69.60;38.20;;;1.10;99.90;;;;;;5072064;28;20508;-71
2023/01/29 10:06:30;;;;;;;69.83;39.10;;;1.00;99.90;;;;;;5072058;28;20461;-71
2023/01/29 10:09:22;;;;;;;65.63;38.10;;;1.10;99.90;;;;;;5072692;28;20463;-71
2023/01/29 10:11:59;;;;;;;68.10;39.63;;;1.10;99.90;;;;;;5072051;28;20462;-71
2023/01/29 10:14:37;;;;;;;67.43;39.40;;;1.10;99.90;;;;;;5071424;28;20980;-71
2023/01/29 10:17:20;;;;;;;75.73;40.27;;;1.20;99.90;;;;;;5071703;28;20575;-70
2023/01/29 10:20:04;;;;;;;66.27;39.70;;;1.20;99.90;;;;;;5070655;28;20458;-68
2023/01/29 10:25:55;;;;;;;65.53;36.27;;;1.50;99.90;;;;;;5071552;28;20462;-71
2023/01/29 10:28:28;;;;;;;59.97;33.67;;;1.60;99.90;;;;;;5070050;28;20458;-71
2023/01/29 10:30:59;;;;;;;58.23;33.57;;;1.60;99.90;;;;;;5072416;28;20534;-68
2023/01/29 10:33:33;;;;;;;65.17;37.20;;;1.70;99.90;;;;;;5071010;28;20942;-68
2023/01/29 10:36:04;;;;;;;72.83;39.80;;;1.70;99.90;;;;;;5070980;28;20486;-69
2023/01/29 10:38:44;;;;;;;56.17;35.43;;;1.60;99.90;;;;;;5071276;28;20466;-68
2023/01/29 10:41:30;;;;;;;55.20;32.60;;;1.80;99.90;;;;;;5070895;28;20478;-67
2023/01/29 10:44:13;;;;;;;61.80;34.80;;;1.90;99.90;;;;;;5068886;28;20462;-71
2023/01/29 10:46:56;;;;;;;54.30;34.10;;;2.00;99.90;;;;;;5069347;28;20866;-71
2023/01/29 10:49:37;;;;;;;56.00;33.20;;;2.00;99.90;;;;;;5068454;28;20514;-70
2023/01/29 10:52:19;;;;;;;57.70;35.03;;;2.20;99.90;;;;;;5070945;28;20493;-68
2023/01/29 10:55:01;;;;;;;56.97;34.23;;;2.20;99.90;;;;;;5067084;28;21007;-70
2023/01/29 10:57:52;;;;;;;52.83;31.90;;;2.30;99.90;;;;;;5067916;28;20503;-70
2023/01/29 11:00:23;;;;;;;59.83;31.40;;;2.30;99.90;;;;;;5066938;28;20459;-68
2023/01/29 11:02:51;;;;;;;60.30;34.07;;;2.30;99.90;;;;;;5062787;28;20474;-68
2023/01/29 11:05:25;;;;;;;55.23;32.27;;;2.30;99.90;;;;;;5062325;28;20470;-69
2023/01/29 11:08:05;;;;;;;54.97;32.73;;;2.40;99.90;;;;;;5064868;28;20471;-68
2023/01/29 11:10:37;;;;;;;54.10;31.50;;;2.50;99.90;;;;;;5068051;28;20471;-68
2023/01/29 11:13:05;;;;;;;53.93;32.63;;;2.50;99.90;;;;;;5065232;28;20462;-68
2023/01/29 11:15:33;;;;;;;53.83;33.07;;;2.50;99.90;;;;;;5071297;28;20501;-67
2023/01/29 11:18:05;;;;;;;49.33;33.67;;;2.50;99.90;;;;;;5077897;28;20467;-68
2023/01/29 11:20:33;;;;;;;51.77;33.70;;;2.40;99.90;;;;;;5071609;28;20471;-70
2023/01/29 11:23:00;;;;;;;52.47;32.30;;;2.50;99.90;;;;;;5068789;28;21030;-70
2023/01/29 11:25:31;;;;;;;54.47;32.13;;;2.50;99.90;;;;;;5073912;28;20458;-68
2023/01/29 11:28:00;;;;;;;57.37;34.67;;;2.50;99.90;;;;;;5068825;28;20467;-68
2023/01/29 11:30:32;;;;;;;60.23;34.17;;;2.60;99.90;;;;;;5079610;28;20704;-68
2023/01/29 11:33:07;;;;;;;52.27;33.50;;;2.60;99.90;;;;;;5072615;28;20459;-67
2023/01/29 11:35:35;;;;;;;55.83;34.47;;;2.90;99.90;;;;;;5068451;28;20491;-68
2023/01/29 11:38:18;;;;;;;61.00;33.47;;;2.80;99.90;;;;;;5067234;28;20468;-68
2023/01/29 11:40:45;;;;;;;70.23;40.20;;;2.80;99.90;;;;;;5069042;28;20574;-68
2023/01/29 11:43:27;;;;;;;55.77;33.47;;;2.90;99.90;;;;;;5070694;28;20466;-68
2023/01/29 11:45:58;;;;;;;55.07;34.37;;;3.00;99.90;;;;;;5069854;28;20451;-67
2023/01/29 11:48:33;;;;;;;54.80;33.57;;;3.10;99.90;;;;;;5066455;28;20464;-68
2023/01/29 11:51:01;;;;;;;50.77;32.40;;;3.20;99.90;;;;;;5073843;28;21052;-68
2023/01/29 11:53:37;;;;;;;47.80;31.10;;;3.30;99.90;;;;;;5065558;28;20475;-68
2023/01/29 11:56:13;;;;;;;45.47;30.83;;;3.30;99.90;;;;;;5072850;28;20490;-68
2023/01/29 11:58:42;;;;;;;47.73;31.00;;;3.20;99.90;;;;;;5074113;28;20520;-67
2023/01/29 12:01:14;;;;;;;46.50;29.83;;;3.10;99.90;;;;;;5067224;28;20467;-67
2023/01/29 12:03:44;;;;;;;49.87;32.03;;;3.10;99.90;;;;;;5068330;28;20787;-68
2023/01/29 12:06:19;;;;;;;42.67;30.70;;;3.10;99.90;;;;;;5066037;28;20501;-68
2023/01/29 12:08:55;;;;;;;50.87;31.93;;;3.20;99.90;;;;;;5069605;28;20915;-68
2023/01/29 12:11:29;;;;;;;48.97;31.47;;;3.30;99.90;;;;;;5070231;28;20554;-68
2023/01/29 12:13:57;;;;;;;54.50;31.03;;;3.40;99.90;;;;;;5075785;28;20454;-68
2023/01/29 12:16:29;;;;;;;49.63;31.97;;;3.50;99.90;;;;;;5071410;28;20488;-68
2023/01/29 12:19:04;;;;;;;42.83;29.53;;;3.40;99.90;;;;;;5069851;28;20466;-68
2023/01/29 12:21:35;;;;;;;45.37;32.07;;;3.40;99.90;;;;;;5070351;28;20535;-68
2023/01/29 12:24:07;;;;;;;43.13;30.27;;;3.40;99.90;;;;;;5071994;28;20458;-67
2023/01/29 12:26:39;;;;;;;45.37;30.30;;;3.50;99.90;;;;;;5072808;28;20462;-68
2023/01/29 12:29:19;;;;;;;46.90;32.07;;;3.60;99.90;;;;;;5078542;28;20965;-68
2023/01/29 12:31:56;;;;;;;43.23;29.30;;;3.60;99.90;;;;;;5063766;28;20462;-68
2023/01/29 12:34:27;;;;;;;47.63;31.17;;;3.60;99.90;;;;;;5076181;28;20458;-70
2023/01/29 12:37:00;;;;;;;44.37;28.83;;;3.70;99.90;;;;;;5062624;28;20586;-70
2023/01/29 12:39:27;;;;;;;40.47;27.30;;;3.60;99.90;;;;;;5070554;28;20483;-68
2023/01/29 12:41:59;;;;;;;42.17;27.90;;;3.60;99.90;;;;;;5067112;28;20470;-68
2023/01/29 12:44:33;;;;;;;41.33;27.30;;;3.50;99.90;;;;;;5069024;28;20469;-70
2023/01/29 12:47:06;;;;;;;46.20;29.50;;;3.50;99.90;;;;;;5070604;28;20454;-70
2023/01/29 12:49:35;;;;;;;40.43;29.23;;;3.50;99.90;;;;;;5073889;28;20475;-71
2023/01/29 12:52:09;;;;;;;45.13;30.10;;;3.40;99.90;;;;;;5067458;28;20459;-70
2023/01/29 12:54:42;;;;;;;40.53;28.40;;;3.50;99.90;;;;;;5068606;28;20478;-70
2023/01/29 12:57:15;;;;;;;40.40;29.50;;;3.50;99.90;;;;;;5066628;28;20498;-70
2023/01/29 12:59:46;;;;;;;44.27;28.80;;;3.60;99.90;;;;;;5069842;28;20507;-68
2023/01/29 13:02:23;;;;;;;40.97;28.93;;;3.40;99.90;;;;;;5066734;28;20466;-68
2023/01/29 13:04:57;;;;;;;40.80;27.80;;;3.50;99.90;;;;;;5072074;28;20994;-68
2023/01/29 13:07:28;;;;;;;43.43;30.27;;;3.50;99.90;;;;;;5068714;28;21058;-68
2023/01/29 13:10:01;;;;;;;43.77;30.40;;;3.50;99.90;;;;;;5070635;28;20463;-67
2023/01/29 13:12:29;;;;;;;43.97;29.47;;;3.50;99.90;;;;;;5064965;28;20567;-70
2023/01/29 13:15:00;;;;;;;38.73;26.63;;;3.40;99.90;;;;;;5070675;28;20505;-71
2023/01/29 13:17:34;;;;;;;45.10;30.47;;;3.60;99.90;;;;;;5068750;28;20549;-70
2023/01/29 13:20:06;;;;;;;46.83;29.23;;;3.70;99.90;;;;;;5068529;28;20458;-68
2023/01/29 13:22:37;;;;;;;39.23;29.10;;;3.70;99.90;;;;;;5061231;28;20550;-68
2023/01/29 13:25:10;;;;;;;39.70;28.57;;;3.80;99.90;;;;;;5075854;28;20467;-68
2023/01/29 13:27:37;;;;;;;41.27;29.47;;;3.80;99.90;;;;;;5067897;28;20811;-68
2023/01/29 13:30:05;;;;;;;47.03;30.20;;;3.70;99.90;;;;;;5068869;28;20467;-70